createdAt,value
2019-02-12T00:00:31.792Z,14.10
2019-02-12T00:02:59.181Z,7.00
2019-02-12T00:05:26.601Z,6.23
2019-02-12T00:07:53.967Z,5.83
2019-02-12T00:10:21.382Z,8.77
2019-02-12T00:12:48.791Z,8.07
2019-02-12T00:15:16.210Z,13.70
2019-02-12T00:17:43.591Z,9.57
2019-02-12T00:20:11.031Z,10.43
2019-02-12T00:22:38.406Z,5.73
2019-02-12T00:25:05.966Z,9.07
2019-02-12T00:27:33.341Z,9.17
2019-02-12T00:30:00.791Z,7.57
2019-02-12T00:32:28.168Z,9.30
2019-02-12T00:34:55.586Z,10.40
2019-02-12T00:37:22.972Z,7.83
2019-02-12T00:39:50.371Z,6.83
2019-02-12T00:42:17.741Z,7.97
2019-02-12T00:44:45.176Z,7.40
2019-02-12T00:47:12.580Z,6.50
2019-02-12T00:49:40.006Z,14.97
2019-02-12T00:52:07.407Z,7.90
2019-02-12T00:54:34.854Z,8.93
2019-02-12T00:57:02.241Z,6.87
2019-02-12T00:59:29.616Z,6.37
2019-02-12T01:01:56.686Z,11.27
2019-02-12T01:04:24.061Z,8.00
2019-02-12T01:06:51.500Z,5.67
2019-02-12T01:09:18.871Z,9.37
2019-02-12T01:11:46.273Z,10.53
2019-02-12T01:14:13.786Z,9.27
2019-02-12T01:16:41.191Z,8.13
2019-02-12T01:19:08.581Z,5.23
2019-02-12T01:21:35.991Z,6.23
2019-02-12T01:24:03.397Z,9.03
2019-02-12T01:26:30.806Z,16.37
2019-02-12T01:28:58.219Z,6.10
2019-02-12T01:31:25.728Z,8.57
2019-02-12T01:33:53.111Z,11.73
2019-02-12T01:36:20.530Z,9.67
2019-02-12T01:38:47.921Z,10.13
2019-02-12T01:41:15.352Z,12.07
2019-02-12T01:43:42.757Z,6.07
2019-02-12T01:46:10.161Z,8.87
2019-02-12T01:48:37.566Z,7.47
2019-02-12T01:51:04.987Z,8.47
2019-02-12T01:53:32.351Z,5.27
2019-02-12T01:55:59.794Z,7.03
2019-02-12T01:58:27.156Z,7.97
2019-02-12T02:00:54.582Z,9.03
2019-02-12T02:03:21.947Z,6.87
2019-02-12T02:05:49.396Z,8.37
2019-02-12T02:08:16.782Z,5.63
2019-02-12T02:10:44.206Z,5.23
2019-02-12T02:13:11.641Z,7.30
2019-02-12T02:15:39.071Z,11.50
2019-02-12T02:18:06.460Z,13.10
2019-02-12T02:20:33.821Z,9.77
2019-02-12T02:23:01.267Z,9.73
2019-02-12T02:25:28.643Z,9.27
2019-02-12T02:27:57.201Z,11.03
2019-02-12T02:30:24.574Z,7.37
2019-02-12T02:32:51.999Z,7.70
2019-02-12T02:35:19.379Z,4.17
2019-02-12T02:37:46.802Z,6.03
2019-02-12T02:40:14.191Z,12.43
2019-02-12T02:42:41.626Z,9.47
2019-02-12T02:45:09.577Z,11.13
2019-02-12T02:47:37.018Z,9.93
2019-02-12T02:50:04.786Z,8.60
2019-02-12T02:52:32.251Z,11.30
2019-02-12T02:54:59.701Z,8.27
2019-02-12T02:57:27.117Z,6.60
2019-02-12T02:59:54.490Z,5.83
2019-02-12T03:02:21.914Z,7.23
2019-02-12T03:04:49.696Z,8.63
2019-02-12T03:07:17.146Z,15.97
2019-02-12T03:09:44.517Z,5.10
2019-02-12T03:12:11.972Z,9.50
2019-02-12T03:14:39.362Z,7.40
2019-02-12T03:17:06.767Z,7.60
2019-02-12T03:19:34.136Z,6.63
2019-02-12T03:22:03.566Z,7.43
2019-02-12T03:24:30.853Z,10.37
2019-02-12T03:26:58.221Z,8.27
2019-02-12T03:29:25.633Z,10.27
2019-02-12T03:31:53.027Z,6.90
2019-02-12T03:34:20.449Z,8.47
2019-02-12T03:36:47.841Z,8.97
2019-02-12T03:39:15.276Z,6.07
2019-02-12T03:41:42.666Z,5.40
2019-02-12T03:44:10.116Z,11.97
2019-02-12T03:46:37.481Z,8.77
2019-02-12T03:49:04.934Z,9.50
2019-02-12T03:51:32.311Z,10.73
2019-02-12T03:53:59.741Z,9.70
2019-02-12T03:56:27.121Z,9.90
2019-02-12T03:58:54.894Z,8.33
2019-02-12T04:01:22.362Z,4.83
2019-02-12T04:03:49.898Z,4.43
2019-02-12T04:06:17.265Z,10.37
2019-02-12T04:08:44.695Z,8.70
2019-02-12T04:11:12.061Z,8.43
2019-02-12T04:13:39.541Z,10.97
2019-02-12T04:16:06.929Z,7.53
2019-02-12T04:18:34.482Z,10.10
2019-02-12T04:21:02.259Z,4.93
2019-02-12T04:23:29.740Z,10.63
2019-02-12T04:25:57.096Z,10.37
2019-02-12T04:28:24.529Z,7.73
2019-02-12T04:30:51.886Z,6.77
2019-02-12T04:33:19.292Z,11.73
2019-02-12T04:35:46.683Z,10.80
2019-02-12T04:38:14.116Z,10.83
2019-02-12T04:40:41.510Z,7.83
2019-02-12T04:43:08.916Z,7.40
2019-02-12T04:45:36.297Z,8.60
2019-02-12T04:48:03.822Z,8.13
2019-02-12T04:50:31.236Z,10.37
2019-02-12T04:52:58.676Z,14.50
2019-02-12T04:55:26.062Z,9.23
2019-02-12T04:57:53.447Z,8.33
2019-02-12T05:00:20.888Z,10.60
2019-02-12T05:02:48.271Z,12.23
2019-02-12T05:05:15.791Z,9.07
2019-02-12T05:07:43.182Z,7.40
2019-02-12T05:10:12.642Z,10.60
2019-02-12T05:12:40.058Z,9.03
2019-02-12T05:15:08.402Z,11.60
2019-02-12T05:17:35.763Z,7.50
2019-02-12T05:20:03.461Z,12.67
2019-02-12T05:22:30.869Z,9.33
2019-02-12T05:24:58.301Z,9.93
2019-02-12T05:27:25.656Z,7.50
2019-02-12T05:29:53.052Z,8.93
2019-02-12T05:32:20.416Z,9.97
2019-02-12T05:34:47.860Z,7.97
2019-02-12T05:37:15.283Z,6.20
2019-02-12T05:39:42.800Z,8.90
2019-02-12T05:42:10.166Z,5.80
2019-02-12T05:44:37.601Z,9.43
2019-02-12T05:47:06.914Z,6.33
2019-02-12T05:49:34.329Z,8.43
2019-02-12T05:52:01.711Z,16.93
2019-02-12T05:54:29.154Z,7.97
2019-02-12T05:56:56.534Z,9.30
2019-02-12T05:59:23.971Z,15.67
2019-02-12T06:01:51.383Z,10.20
2019-02-12T06:04:18.800Z,8.60
2019-02-12T06:06:49.339Z,8.33
2019-02-12T06:09:17.254Z,11.83
2019-02-12T06:11:49.261Z,7.60
2019-02-12T06:14:24.626Z,9.00
2019-02-12T06:16:52.373Z,9.30
2019-02-12T06:19:20.293Z,11.03
2019-02-12T06:21:47.751Z,10.57
2019-02-12T06:24:15.526Z,15.50
2019-02-12T06:26:43.565Z,8.67
2019-02-12T06:29:11.130Z,10.33
2019-02-12T06:31:41.346Z,5.77
2019-02-12T06:34:12.351Z,13.47
2019-02-12T06:36:39.866Z,8.40
2019-02-12T06:39:07.476Z,7.60
2019-02-12T06:41:34.962Z,7.10
2019-02-12T06:44:02.336Z,10.70
2019-02-12T06:46:29.958Z,10.07
2019-02-12T06:48:57.346Z,8.90
2019-02-12T06:51:24.776Z,8.57
2019-02-12T06:53:52.446Z,7.30
2019-02-12T06:56:19.861Z,10.00
2019-02-12T06:58:47.286Z,13.57
2019-02-12T07:01:14.821Z,6.87
2019-02-12T07:04:02.957Z,4.23
2019-02-12T07:06:55.636Z,7.30
2019-02-12T07:09:36.786Z,10.47
2019-02-12T07:12:47.907Z,9.53
2019-02-12T07:15:39.627Z,8.47
2019-02-12T07:18:43.278Z,7.87
2019-02-12T07:21:48.266Z,8.77
2019-02-12T07:24:46.364Z,8.90
2019-02-12T07:27:31.112Z,13.87
2019-02-12T07:30:51.541Z,10.77
2019-02-12T07:34:03.526Z,7.67
2019-02-12T07:37:04.759Z,7.37
2019-02-12T07:39:57.756Z,6.77
2019-02-12T07:42:51.746Z,9.87
2019-02-12T07:45:45.376Z,7.97
2019-02-12T07:48:38.381Z,8.53
2019-02-12T07:51:37.166Z,9.73
2019-02-12T07:54:40.676Z,11.60
2019-02-12T07:57:35.927Z,7.57
2019-02-12T08:00:33.251Z,7.23
2019-02-12T08:03:41.189Z,8.47
2019-02-12T08:06:25.021Z,10.30
2019-02-12T08:09:29.046Z,14.73
2019-02-12T08:12:50.731Z,15.87
2019-02-12T08:15:37.771Z,10.30
2019-02-12T08:18:12.552Z,9.70
2019-02-12T08:21:20.061Z,9.50
2019-02-12T08:24:31.513Z,11.23
2019-02-12T08:27:43.476Z,7.50
2019-02-12T08:30:51.911Z,11.40
2019-02-12T08:33:49.369Z,11.03
2019-02-12T08:36:48.701Z,7.17
2019-02-12T08:39:56.560Z,13.17
2019-02-12T08:43:01.017Z,9.17
2019-02-12T08:46:12.821Z,15.00
2019-02-12T08:49:16.111Z,16.33
2019-02-12T08:52:40.343Z,9.93
2019-02-12T08:55:36.880Z,10.87
2019-02-12T08:58:48.900Z,15.73
2019-02-12T09:01:46.601Z,14.67
2019-02-12T09:04:37.587Z,7.37
2019-02-12T09:07:35.105Z,13.23
2019-02-12T09:10:48.741Z,14.30
2019-02-12T09:13:56.381Z,10.37
2019-02-12T09:17:03.663Z,10.83
2019-02-12T09:20:10.453Z,13.03
2019-02-12T09:23:26.011Z,12.33
2019-02-12T09:26:23.066Z,9.30
2019-02-12T09:29:38.036Z,13.23
2019-02-12T09:32:41.445Z,10.83
2019-02-12T09:35:34.205Z,12.70
2019-02-12T09:38:39.506Z,12.57
2019-02-12T09:41:33.410Z,16.57
2019-02-12T09:44:30.991Z,13.90
2019-02-12T09:47:24.045Z,10.37
2019-02-12T09:50:32.063Z,9.73
2019-02-12T09:53:32.581Z,5.77
2019-02-12T09:56:30.748Z,10.93
2019-02-12T09:59:41.873Z,12.37
2019-02-12T10:03:00.232Z,10.90
2019-02-12T10:05:53.996Z,9.87
2019-02-12T10:09:01.315Z,13.33
2019-02-12T10:12:19.731Z,12.40
2019-02-12T10:15:30.416Z,7.27
2019-02-12T10:18:36.711Z,10.53
2019-02-12T10:21:54.815Z,12.70
2019-02-12T10:24:53.682Z,16.17
2019-02-12T10:28:08.720Z,11.97
2019-02-12T10:31:08.228Z,7.90
2019-02-12T10:33:35.616Z,11.47
2019-02-12T10:36:03.066Z,12.13
2019-02-12T10:38:30.588Z,8.00
2019-02-12T10:40:58.026Z,10.27
2019-02-12T10:43:25.420Z,9.30
2019-02-12T10:45:52.861Z,7.00
2019-02-12T10:48:20.246Z,12.77
2019-02-12T10:50:47.713Z,11.07
2019-02-12T10:53:15.101Z,7.97
2019-02-12T10:55:42.536Z,9.27
2019-02-12T10:58:09.920Z,7.37
2019-02-12T11:00:37.441Z,10.77
2019-02-12T11:03:04.826Z,6.73
2019-02-12T11:05:32.271Z,5.63
2019-02-12T11:07:59.655Z,7.30
2019-02-12T11:10:27.101Z,10.47
2019-02-12T11:12:54.554Z,10.00
2019-02-12T11:15:22.071Z,8.03
2019-02-12T11:17:49.446Z,13.43
2019-02-12T11:20:16.886Z,7.93
2019-02-12T11:22:44.311Z,7.93
2019-02-12T11:25:11.740Z,12.10
2019-02-12T11:27:39.131Z,12.43
2019-02-12T11:30:07.226Z,8.07
2019-02-12T11:32:34.766Z,15.33
2019-02-12T11:35:02.368Z,13.10
2019-02-12T11:37:29.927Z,12.30
2019-02-12T11:39:57.507Z,9.30
2019-02-12T11:42:25.056Z,9.03
2019-02-12T11:44:52.626Z,12.40
2019-02-12T11:47:20.247Z,10.50
2019-02-12T11:49:47.826Z,10.80
2019-02-12T11:52:15.388Z,13.43
2019-02-12T11:54:43.966Z,14.90
2019-02-12T11:57:11.706Z,12.13
2019-02-12T11:59:39.235Z,9.53
2019-02-12T12:02:06.786Z,10.80
2019-02-12T12:04:34.327Z,11.27
2019-02-12T12:07:01.906Z,15.63
2019-02-12T12:09:29.448Z,11.20
2019-02-12T12:11:57.046Z,9.83
2019-02-12T12:14:24.628Z,10.13
2019-02-12T12:16:52.205Z,11.63
2019-02-12T12:19:19.727Z,10.60
2019-02-12T12:21:47.344Z,13.23
2019-02-12T12:24:14.926Z,9.73
2019-02-12T12:26:42.646Z,9.43
2019-02-12T12:29:10.185Z,14.67
2019-02-12T12:31:37.766Z,7.70
2019-02-12T12:34:05.306Z,10.17
2019-02-12T12:36:32.865Z,10.07
2019-02-12T12:39:00.406Z,10.07
2019-02-12T12:41:28.046Z,12.10
2019-02-12T12:43:55.612Z,8.50
2019-02-12T12:46:25.349Z,13.97
2019-02-12T12:48:52.869Z,12.40
2019-02-12T12:51:20.848Z,10.30
2019-02-12T12:53:48.390Z,11.40
2019-02-12T12:56:15.974Z,10.93
2019-02-12T12:58:43.546Z,9.37
2019-02-12T13:01:11.185Z,15.33
2019-02-12T13:03:38.745Z,11.80
2019-02-12T13:06:06.226Z,16.80
2019-02-12T13:08:33.786Z,13.43
2019-02-12T13:11:01.331Z,11.93
2019-02-12T13:13:29.105Z,9.53
2019-02-12T13:15:56.647Z,13.57
2019-02-12T13:18:24.247Z,14.07
2019-02-12T13:20:51.787Z,11.70
2019-02-12T13:23:19.414Z,14.93
2019-02-12T13:25:46.945Z,15.23
2019-02-12T13:28:14.528Z,14.90
2019-02-12T13:30:42.406Z,11.77
2019-02-12T13:33:10.027Z,9.50
2019-02-12T13:35:39.809Z,13.97
2019-02-12T13:38:07.466Z,13.40
2019-02-12T13:40:35.126Z,12.43
2019-02-12T13:43:05.864Z,13.80
2019-02-12T13:45:33.452Z,14.67
2019-02-12T13:48:01.045Z,10.13
2019-02-12T13:50:28.585Z,7.40
2019-02-12T13:52:56.325Z,13.67
2019-02-12T13:55:23.918Z,12.23
2019-02-12T13:57:51.505Z,10.83
2019-02-12T14:00:19.204Z,16.77
2019-02-12T14:02:46.765Z,15.60
2019-02-12T14:05:15.557Z,18.63
2019-02-12T14:07:43.307Z,12.37
2019-02-12T14:10:10.892Z,12.47
2019-02-12T14:12:38.604Z,10.63
2019-02-12T14:15:08.064Z,15.07
2019-02-12T14:17:35.652Z,17.77
2019-02-12T14:20:04.026Z,9.07
2019-02-12T14:22:31.724Z,15.63
2019-02-12T14:24:59.244Z,15.10
2019-02-12T14:27:26.884Z,12.10
2019-02-12T14:29:54.385Z,12.13
2019-02-12T14:32:54.707Z,12.07
2019-02-12T14:35:59.184Z,16.90
2019-02-12T14:38:35.111Z,15.33
2019-02-12T14:41:09.884Z,17.87
2019-02-12T14:43:57.104Z,20.77
2019-02-12T14:46:26.376Z,16.93
2019-02-12T14:48:58.925Z,15.33
2019-02-12T14:51:26.544Z,19.60
2019-02-12T14:53:55.999Z,15.23
2019-02-12T14:56:24.383Z,22.90
2019-02-12T14:58:54.739Z,17.47
2019-02-12T15:01:45.163Z,16.97
2019-02-12T15:04:23.424Z,20.10
2019-02-12T15:07:09.763Z,17.47
2019-02-12T15:13:16.043Z,15.43
2019-02-12T15:15:50.944Z,17.00
2019-02-12T15:18:24.664Z,16.67
2019-02-12T15:20:54.682Z,21.57
2019-02-12T15:23:22.392Z,17.00
2019-02-12T15:26:05.003Z,16.00
2019-02-12T15:29:04.103Z,18.23
2019-02-12T15:31:29.124Z,14.60
2019-02-12T15:34:31.236Z,15.43
2019-02-12T15:37:25.898Z,19.13
2019-02-12T15:39:55.234Z,18.03
2019-02-12T15:42:23.632Z,13.63
2019-02-12T15:45:07.966Z,15.70
2019-02-12T15:47:48.083Z,14.90
2019-02-12T15:50:21.208Z,14.97
2019-02-12T15:52:52.064Z,18.00
2019-02-12T15:55:26.606Z,14.50
2019-02-12T15:58:08.332Z,12.37
2019-02-12T16:00:36.305Z,16.57
2019-02-12T16:03:04.092Z,14.37
2019-02-12T16:05:34.867Z,12.13
2019-02-12T16:08:10.388Z,12.43
2019-02-12T16:10:40.122Z,15.03
2019-02-12T16:13:09.487Z,13.27
2019-02-12T16:15:45.194Z,11.27
2019-02-12T16:18:13.027Z,16.23
2019-02-12T16:20:45.784Z,12.00
2019-02-12T16:23:14.000Z,13.63
2019-02-12T16:25:42.104Z,22.83
2019-02-12T16:28:13.312Z,11.90
2019-02-12T16:30:41.424Z,12.37
2019-02-12T16:33:11.623Z,17.47
2019-02-12T16:35:39.554Z,16.83
2019-02-12T16:38:07.712Z,16.97
2019-02-12T16:40:35.844Z,12.27
2019-02-12T16:43:14.702Z,17.33
2019-02-12T16:46:01.363Z,18.83
2019-02-12T16:48:36.172Z,14.67
2019-02-12T16:51:04.386Z,23.00
2019-02-12T16:53:32.428Z,18.37
2019-02-12T16:56:07.916Z,29.80
2019-02-12T16:58:30.252Z,33.93
2019-02-12T17:00:58.164Z,25.67
2019-02-12T17:03:26.065Z,20.00
2019-02-12T17:05:53.893Z,31.87
2019-02-12T17:08:21.567Z,25.43
2019-02-12T17:10:49.401Z,19.43
2019-02-12T17:13:18.261Z,26.07
2019-02-12T17:15:46.214Z,23.20
2019-02-12T17:18:14.151Z,22.10
2019-02-12T17:20:41.879Z,21.23
2019-02-12T17:23:09.816Z,17.97
2019-02-12T17:25:42.771Z,24.60
2019-02-12T17:28:13.479Z,19.50
2019-02-12T17:30:41.477Z,22.70
2019-02-12T17:33:52.555Z,16.90
2019-02-12T17:36:24.315Z,20.07
2019-02-12T17:38:52.284Z,20.70
2019-02-12T17:41:20.007Z,21.97
2019-02-12T17:44:03.174Z,17.63
2019-02-12T17:46:39.340Z,24.57
2019-02-12T17:49:07.212Z,16.00
2019-02-12T17:51:35.476Z,18.73
2019-02-12T17:54:15.460Z,22.17
2019-02-12T17:56:42.713Z,20.07
2019-02-12T17:59:10.396Z,19.80
2019-02-12T18:01:38.263Z,19.70
2019-02-12T18:04:06.188Z,21.73
2019-02-12T18:06:45.425Z,20.27
2019-02-12T18:09:13.401Z,19.40
2019-02-12T18:11:41.256Z,18.80
2019-02-12T18:14:24.044Z,15.47
2019-02-12T18:16:52.131Z,18.27
2019-02-12T18:19:22.682Z,21.40
2019-02-12T18:21:51.992Z,18.67
2019-02-12T18:24:19.932Z,18.97
2019-02-12T18:26:47.892Z,18.07
2019-02-12T18:29:16.081Z,23.70
2019-02-12T18:31:44.091Z,17.87
2019-02-12T18:34:11.991Z,20.47
2019-02-12T18:36:39.753Z,23.83
2019-02-12T18:39:08.682Z,20.47
2019-02-12T18:41:36.461Z,22.53
2019-02-12T18:44:06.596Z,21.57
2019-02-12T18:46:34.321Z,19.77
2019-02-12T18:49:02.117Z,22.10
2019-02-12T18:51:30.051Z,20.03
2019-02-12T18:53:57.996Z,19.07
2019-02-12T18:56:25.786Z,22.07
2019-02-12T18:58:53.596Z,17.87
2019-02-12T19:01:21.381Z,19.10
2019-02-12T19:03:49.254Z,17.73
2019-02-12T19:06:17.062Z,20.43
2019-02-12T19:08:44.936Z,21.40
2019-02-12T19:11:12.881Z,17.97
2019-02-12T19:13:40.907Z,23.67
2019-02-12T19:16:08.691Z,24.17
2019-02-12T19:18:36.521Z,22.90
2019-02-12T19:21:04.935Z,22.83
2019-02-12T19:23:32.826Z,23.43
2019-02-12T19:26:00.751Z,20.13
2019-02-12T19:28:28.783Z,19.70
2019-02-12T19:30:56.626Z,18.90
2019-02-12T19:33:24.611Z,21.67
2019-02-12T19:35:52.447Z,21.37
2019-02-12T19:38:20.423Z,21.50
2019-02-12T19:40:48.361Z,22.13
2019-02-12T19:43:16.226Z,19.40
2019-02-12T19:45:44.166Z,23.03
2019-02-12T19:48:12.386Z,23.80
2019-02-12T19:50:40.270Z,21.67
2019-02-12T19:53:08.301Z,26.60
2019-02-12T19:55:39.776Z,31.90
2019-02-12T19:58:08.341Z,24.27
2019-02-12T20:00:36.166Z,20.57
2019-02-12T20:03:05.673Z,24.23
2019-02-12T20:05:33.561Z,21.97
2019-02-12T20:08:01.681Z,19.70
2019-02-12T20:10:29.629Z,24.43
2019-02-12T20:12:57.587Z,21.37
2019-02-12T20:15:25.491Z,25.23
2019-02-12T20:17:53.491Z,21.17
2019-02-12T20:20:21.322Z,28.30
2019-02-12T20:22:49.366Z,27.53
2019-02-12T20:25:17.351Z,24.33
2019-02-12T20:27:45.186Z,19.07
2019-02-12T20:30:14.148Z,24.60
2019-02-12T20:32:42.211Z,22.00
2019-02-12T20:35:14.841Z,23.03
2019-02-12T20:37:42.866Z,20.30
2019-02-12T20:40:11.719Z,27.07
2019-02-12T20:42:40.843Z,23.40
2019-02-12T20:45:11.239Z,25.80
2019-02-12T20:47:40.261Z,29.70
2019-02-12T20:50:09.420Z,24.73
2019-02-12T20:52:37.386Z,24.53
2019-02-12T20:55:05.646Z,25.20
2019-02-12T20:57:33.916Z,23.40
2019-02-12T21:00:02.031Z,27.20
2019-02-12T21:02:29.951Z,25.53
2019-02-12T21:04:57.834Z,19.63
2019-02-12T21:07:25.931Z,22.57
2019-02-12T21:09:53.871Z,24.73
2019-02-12T21:12:22.141Z,27.47
2019-02-12T21:14:50.011Z,25.37
2019-02-12T21:17:18.286Z,25.77
2019-02-12T21:19:46.146Z,27.23
2019-02-12T21:22:13.966Z,28.83
2019-02-12T21:24:41.825Z,29.97
2019-02-12T21:27:09.602Z,36.50
2019-02-12T21:29:37.536Z,26.87
2019-02-12T21:32:05.451Z,37.47
2019-02-12T21:34:33.434Z,28.60
2019-02-12T21:37:01.215Z,25.40
2019-02-12T21:39:31.106Z,33.17
2019-02-12T21:41:58.788Z,25.83
2019-02-12T21:44:26.741Z,23.73
2019-02-12T21:46:54.541Z,30.53
2019-02-12T21:49:22.341Z,27.07
2019-02-12T21:51:50.006Z,32.30
2019-02-12T21:54:17.766Z,29.47
2019-02-12T21:56:45.482Z,22.93
2019-02-12T21:59:13.916Z,24.63
2019-02-12T22:01:41.629Z,25.77
2019-02-12T22:04:09.241Z,24.43
2019-02-12T22:06:36.921Z,27.03
2019-02-12T22:09:05.131Z,23.60
2019-02-12T22:11:32.726Z,26.17
2019-02-12T22:14:00.301Z,22.93
2019-02-12T22:16:27.810Z,26.10
2019-02-12T22:18:55.346Z,23.57
2019-02-12T22:21:22.861Z,23.77
2019-02-12T22:23:50.301Z,23.83
2019-02-12T22:26:17.786Z,24.33
2019-02-12T22:28:46.362Z,21.77
2019-02-12T22:31:13.821Z,23.77
2019-02-12T22:33:41.247Z,24.50
2019-02-12T22:36:08.760Z,28.07
2019-02-12T22:38:36.131Z,22.70
2019-02-12T22:41:03.681Z,27.60
2019-02-12T22:43:31.061Z,26.77
2019-02-12T22:45:58.687Z,21.80
2019-02-12T22:48:26.086Z,26.57
2019-02-12T22:50:53.616Z,26.07
2019-02-12T22:53:21.113Z,24.87
2019-02-12T22:55:48.626Z,27.27
2019-02-12T22:58:16.036Z,25.03
2019-02-12T23:00:54.526Z,24.53
2019-02-12T23:03:22.023Z,22.10
2019-02-12T23:05:49.510Z,26.33
2019-02-12T23:08:16.890Z,20.30
2019-02-12T23:10:44.315Z,23.53
2019-02-12T23:13:11.871Z,26.70
2019-02-12T23:15:39.745Z,24.73
2019-02-12T23:18:07.139Z,26.57
2019-02-12T23:20:34.606Z,30.87
2019-02-12T23:23:02.110Z,28.13
2019-02-12T23:25:29.496Z,27.10
2019-02-12T23:27:57.804Z,27.47
2019-02-12T23:30:25.434Z,20.83
2019-02-12T23:32:52.960Z,27.13
2019-02-12T23:35:21.582Z,25.90
2019-02-12T23:37:49.117Z,23.10
2019-02-12T23:40:16.625Z,31.87
2019-02-12T23:42:44.158Z,26.30
2019-02-12T23:45:12.033Z,25.53
2019-02-12T23:47:40.481Z,26.50
2019-02-12T23:50:08.261Z,27.67
2019-02-12T23:52:35.826Z,29.40
2019-02-12T23:55:03.427Z,27.13
2019-02-12T23:57:30.912Z,25.93
2019-02-12T23:59:58.336Z,27.93
